Meath Environmental Platform

Observations for Trim Market St

Time AQI Temp °C Hum % Pres Pa CO μg/m³ H₂S μg/m³ NO μg/m³ NO₂ μg/m³ O₃ μg/m³ SO₂ μg/m³ PM1 μg/m³ PM2.5 μg/m³ PM10 μg/m³
Tuesday 25 August 2026
00:19 3 16 71 53,105 0.3 0 1.32 16.23 57.19 0 4.28 5.9 9.39
00:18 3 16 71 53,244 0.31 0 1.42 26.34 54.42 0 4.28 6.39 10.63
Monday 24 August 2026
23:59 3 16 70 54,934 0.29 0 1.42 23.05 55.82 0 4.99 5.98 10.67
23:58 3 16 70 55,010 0.29 0 1.42 19.03 60.07 0 3.56 5 7.53
23:57 3 16 70 55,081 0.3 0 1.34 18.75 64.19 0 4.99 6.95 10.67
23:55 3 16 70 55,226 0.3 0 1.27 19.89 62.76 0 4.99 7.45 11.3
23:53 3 16 70 55,352 0.3 0 1.24 18.95 61.68 0 4.28 6.97 10.68
23:50 3 16 69 55,542 0.3 0 1.17 19.4 59.56 0 4.99 6.98 10.68
23:49 3 16 69 55,604 0.3 0 1.13 18.38 57.85 0 4.99 6.01 8.79
23:48 3 16 69 55,665 0.3 0 1.16 20.49 60.76 0 4.28 6.98 10.68
23:47 3 16.1 69 55,718 0.29 0 1.31 16.8 57.86 0 4.28 6.99 10.06
23:46 3 16 69 55,741 0.29 0 1.32 12.49 74.48 0 4.28 6.5 10.06
23:41 3 16.1 69 55,880 0.3 0 1.27 19.49 59.23 0 2.85 4.57 7.53
23:38 3 16.1 69 55,975 0.3 0 1.37 24.32 55.92 0 3.56 7.01 10.7
23:36 3 16.1 69 56,038 0.29 0 1.43 17.08 60.18 0 3.56 5.07 7.53
23:31 3 16.1 68 56,156 0.3 0 1.33 14.71 71.76 0 4.28 6.05 9.44
23:29 3 16.1 68 56,182 0.3 0 1.39 21.71 57.36 0 4.28 6.06 8.8
23:28 3 16.1 68 56,207 0.29 0 1.42 18.67 63.92 0 3.56 7.04 10.08
23:26 3 16.2 68 56,244 0.29 0 1.39 19.09 58.14 0 4.99 7.53 11.99
23:25 3 16.2 68 56,255 0.29 0 1.35 22.61 58.23 0 3.56 7.53 10.71